Terminal Aerodrome Forecast
Issued by NWS Charleston, SC

Home | Current Version | Previous Version | Text Only | Print | Product List | Glossary On
Versions: 1 2 3 4 5 6 7 8 9 10 11 12 13 14 15 16 17 18 19 20 21
000
FTUS42 KCHS 191740
TAFCHS
TAF
KCHS 191740Z 1918/2018 15010KT P6SM SCT008 BKN015
     FM192200 18012G18KT P6SM VCTS BKN015CB
      TEMPO 1922/1924 26020G30KT 2SM +TSRA BR BKN010CB
     FM200000 21009KT 5SM -SHRA BR SCT015 BKN040
     FM200700 24004KT P6SM BKN007
     FM201300 25008KT P6SM SCT015=

USA.gov is the U.S. government's official web portal to all federal, state and local government web resources and services.